createdAt,value
2023-09-30T00:01:34.526Z,7.75
2023-09-30T00:04:04.602Z,9.00
2023-09-30T00:06:32.490Z,8.50
2023-09-30T00:09:00.366Z,8.00
2023-09-30T00:11:28.385Z,7.75
2023-09-30T00:13:56.558Z,8.00
2023-09-30T00:16:25.267Z,8.50
2023-09-30T00:18:55.041Z,8.75
2023-09-30T00:21:22.651Z,6.25
2023-09-30T00:23:50.745Z,8.75
2023-09-30T00:26:18.465Z,9.75
2023-09-30T00:28:48.726Z,3.75
2023-09-30T00:31:16.528Z,5.00
2023-09-30T00:33:44.051Z,9.00
2023-09-30T00:36:16.347Z,7.00
2023-09-30T00:38:45.692Z,7.33
2023-09-30T00:41:13.324Z,8.50
2023-09-30T00:43:42.656Z,9.25
2023-09-30T00:46:10.514Z,8.50
2023-09-30T00:48:39.582Z,9.00
2023-09-30T00:51:07.833Z,5.00
2023-09-30T00:53:36.067Z,8.25
2023-09-30T00:56:04.681Z,6.50
2023-09-30T00:58:33.287Z,3.50
2023-09-30T01:01:01.662Z,10.25
2023-09-30T01:03:29.292Z,5.25
2023-09-30T01:05:57.654Z,8.75
2023-09-30T01:08:25.450Z,5.75
2023-09-30T01:10:53.060Z,7.75
2023-09-30T01:13:20.988Z,8.75
2023-09-30T01:15:48.770Z,10.25
2023-09-30T01:18:18.884Z,8.00
2023-09-30T01:20:46.693Z,7.75
2023-09-30T01:23:14.398Z,8.50
2023-09-30T01:25:43.784Z,7.50
2023-09-30T01:28:11.866Z,8.50
2023-09-30T01:30:39.566Z,8.50
2023-09-30T01:33:09.471Z,8.00
2023-09-30T01:35:37.059Z,8.50
2023-09-30T01:38:06.181Z,7.00
2023-09-30T01:40:34.169Z,8.50
2023-09-30T01:43:02.264Z,8.75
2023-09-30T01:45:30.017Z,8.25
2023-09-30T01:48:00.514Z,7.50
2023-09-30T01:50:28.385Z,9.50
2023-09-30T01:52:56.692Z,11.75
2023-09-30T01:55:24.158Z,8.75
2023-09-30T01:57:51.494Z,9.50
2023-09-30T02:00:19.099Z,8.00
2023-09-30T02:02:46.841Z,9.50
2023-09-30T02:05:14.677Z,8.25
2023-09-30T02:07:42.350Z,9.00
2023-09-30T02:10:11.369Z,9.50
2023-09-30T02:12:38.924Z,9.50
2023-09-30T02:15:08.705Z,7.50
2023-09-30T02:17:36.170Z,9.75
2023-09-30T02:20:08.736Z,9.50
2023-09-30T02:22:37.187Z,8.50
2023-09-30T02:25:08.473Z,8.75
2023-09-30T02:27:36.073Z,9.00
2023-09-30T02:30:03.704Z,8.50
2023-09-30T02:32:31.316Z,9.25
2023-09-30T02:34:59.931Z,9.75
2023-09-30T02:37:27.392Z,9.75
2023-09-30T02:39:56.841Z,9.00
2023-09-30T02:42:25.331Z,9.00
2023-09-30T02:44:52.822Z,9.00
2023-09-30T02:47:21.080Z,8.50
2023-09-30T02:49:48.927Z,7.50
2023-09-30T02:52:16.622Z,9.50
2023-09-30T02:54:44.379Z,9.00
2023-09-30T02:57:12.154Z,9.00
2023-09-30T02:59:39.995Z,10.00
2023-09-30T03:02:08.381Z,8.25
2023-09-30T03:04:36.280Z,8.00
2023-09-30T03:07:03.779Z,9.75
2023-09-30T03:09:31.714Z,8.00
2023-09-30T03:12:00.700Z,8.00
2023-09-30T03:14:32.457Z,8.00
2023-09-30T03:17:00.824Z,9.00
2023-09-30T03:19:28.695Z,8.50
2023-09-30T03:21:56.416Z,7.75
2023-09-30T03:24:24.367Z,7.00
2023-09-30T03:26:53.020Z,8.75
2023-09-30T03:29:20.504Z,7.00
2023-09-30T03:31:48.395Z,13.25
2023-09-30T03:34:17.635Z,10.50
2023-09-30T03:36:45.678Z,6.00
2023-09-30T03:39:16.634Z,9.25
2023-09-30T03:41:44.172Z,9.00
2023-09-30T03:44:11.779Z,11.50
2023-09-30T03:46:39.607Z,13.00
2023-09-30T03:49:09.893Z,11.50
2023-09-30T03:51:38.599Z,9.50
2023-09-30T03:54:07.495Z,9.75
2023-09-30T03:56:35.618Z,7.00
2023-09-30T03:59:03.784Z,8.25
2023-09-30T04:01:32.600Z,8.25
2023-09-30T04:04:00.362Z,10.75
2023-09-30T04:06:30.625Z,8.00
2023-09-30T04:09:00.541Z,11.00
2023-09-30T04:11:28.927Z,9.50
2023-09-30T04:13:56.767Z,9.25
2023-09-30T04:16:30.383Z,8.25
2023-09-30T04:18:58.100Z,10.00
2023-09-30T04:21:25.882Z,8.00
2023-09-30T04:23:54.698Z,9.25
2023-09-30T04:26:23.067Z,10.25
2023-09-30T04:28:50.944Z,8.50
2023-09-30T04:31:20.170Z,9.00
2023-09-30T04:33:49.839Z,9.00
2023-09-30T04:36:17.612Z,9.75
2023-09-30T04:38:45.650Z,11.00
2023-09-30T04:41:13.698Z,9.00
2023-09-30T04:43:41.359Z,8.50
2023-09-30T04:46:09.452Z,11.00
2023-09-30T04:48:38.156Z,10.25
2023-09-30T04:51:09.988Z,8.75
2023-09-30T04:53:38.673Z,9.25
2023-09-30T04:56:06.817Z,11.50
2023-09-30T04:58:34.316Z,9.50
2023-09-30T05:01:01.877Z,10.00
2023-09-30T05:03:29.564Z,10.00
2023-09-30T05:05:59.727Z,9.00
2023-09-30T05:08:27.414Z,10.25
2023-09-30T05:10:56.983Z,8.00
2023-09-30T05:13:25.126Z,9.00
2023-09-30T05:15:53.522Z,10.75
2023-09-30T05:18:21.394Z,10.50
2023-09-30T05:20:51.094Z,9.00
2023-09-30T05:23:20.201Z,8.00
2023-09-30T05:25:47.642Z,8.50
2023-09-30T05:28:15.705Z,7.00
2023-09-30T05:30:43.115Z,7.00
2023-09-30T05:33:18.111Z,6.00
2023-09-30T05:35:49.633Z,9.25
2023-09-30T05:38:17.208Z,8.75
2023-09-30T05:40:44.898Z,7.75
2023-09-30T05:43:15.488Z,8.25
2023-09-30T05:45:50.990Z,11.00
2023-09-30T05:48:18.842Z,8.25
2023-09-30T05:50:46.566Z,11.00
2023-09-30T05:53:15.677Z,10.25
2023-09-30T05:55:48.290Z,9.25
2023-09-30T05:58:19.299Z,10.00
2023-09-30T06:00:47.238Z,12.50
2023-09-30T06:03:17.133Z,9.25
2023-09-30T06:05:45.123Z,9.00
2023-09-30T06:08:15.114Z,7.50
2023-09-30T06:10:47.432Z,8.75
2023-09-30T06:13:15.840Z,8.50
2023-09-30T06:15:45.092Z,8.50
2023-09-30T06:18:15.437Z,10.00
2023-09-30T06:20:43.809Z,7.50
2023-09-30T06:23:11.846Z,6.00
2023-09-30T06:25:41.631Z,8.00
2023-09-30T06:28:11.423Z,8.50
2023-09-30T06:30:43.567Z,8.00
2023-09-30T06:33:14.550Z,7.75
2023-09-30T06:35:51.808Z,8.75
2023-09-30T06:38:22.907Z,8.50
2023-09-30T06:40:50.893Z,8.75
2023-09-30T06:43:19.509Z,7.75
2023-09-30T06:45:48.474Z,8.00
2023-09-30T06:48:16.753Z,9.00
2023-09-30T06:50:46.636Z,7.00
2023-09-30T06:53:14.386Z,8.50
2023-09-30T06:55:42.048Z,8.00
2023-09-30T06:58:11.752Z,8.50
2023-09-30T07:00:42.511Z,7.00
2023-09-30T07:03:10.921Z,9.25
2023-09-30T07:05:41.452Z,8.50
2023-09-30T07:08:09.509Z,7.50
2023-09-30T07:10:37.083Z,8.75
2023-09-30T07:13:05.886Z,8.00
2023-09-30T07:15:33.591Z,6.00
2023-09-30T07:18:01.247Z,9.00
2023-09-30T07:20:29.547Z,7.50
2023-09-30T07:23:16.308Z,6.75
2023-09-30T07:25:47.736Z,6.25
2023-09-30T07:28:15.340Z,6.25
2023-09-30T07:30:46.155Z,8.00
2023-09-30T07:33:14.253Z,7.50
2023-09-30T07:35:42.194Z,6.25
2023-09-30T07:38:09.800Z,6.50
2023-09-30T07:40:37.835Z,4.00
2023-09-30T07:43:05.497Z,6.50
2023-09-30T07:45:33.700Z,8.00
2023-09-30T07:48:04.600Z,7.25
2023-09-30T07:50:33.157Z,7.00
2023-09-30T07:53:02.077Z,6.25
2023-09-30T07:55:30.403Z,8.25
2023-09-30T07:58:01.237Z,7.00
2023-09-30T08:00:29.757Z,6.00
2023-09-30T08:02:57.792Z,6.00
2023-09-30T08:05:25.559Z,6.80
2023-09-30T08:07:53.131Z,8.00
2023-09-30T08:10:21.006Z,6.80
2023-09-30T08:12:50.912Z,6.20
2023-09-30T08:15:18.915Z,7.20
2023-09-30T08:17:46.635Z,7.60
2023-09-30T08:20:15.238Z,6.80
2023-09-30T08:22:42.850Z,6.20
2023-09-30T08:25:11.979Z,6.20
2023-09-30T08:27:40.466Z,6.00
2023-09-30T08:30:08.923Z,5.20
2023-09-30T08:32:37.455Z,6.00
2023-09-30T08:35:06.054Z,6.60
2023-09-30T08:37:34.237Z,7.20
2023-09-30T08:40:06.760Z,7.00
2023-09-30T08:42:35.960Z,4.00
2023-09-30T08:45:09.258Z,5.00
2023-09-30T08:47:37.995Z,5.20
2023-09-30T08:50:10.212Z,3.80
2023-09-30T08:52:57.840Z,4.60
2023-09-30T08:55:28.761Z,4.60
2023-09-30T08:58:01.204Z,6.60
2023-09-30T09:00:30.030Z,7.80
2023-09-30T09:02:57.881Z,6.00
2023-09-30T09:05:25.863Z,7.20
2023-09-30T09:07:53.641Z,2.40
2023-09-30T09:10:21.780Z,4.80
2023-09-30T09:12:58.247Z,7.40
2023-09-30T09:15:30.565Z,5.40
2023-09-30T09:17:58.770Z,8.00
2023-09-30T09:20:27.378Z,6.80
2023-09-30T09:22:57.261Z,7.40
2023-09-30T09:25:25.830Z,8.00
2023-09-30T09:27:55.555Z,7.60
2023-09-30T09:30:26.497Z,7.60
2023-09-30T09:33:02.576Z,8.00
2023-09-30T09:35:32.228Z,7.50
2023-09-30T09:38:09.377Z,8.20
2023-09-30T09:40:39.512Z,7.60
2023-09-30T09:43:07.802Z,7.00
2023-09-30T09:45:37.311Z,6.40
2023-09-30T09:48:06.593Z,7.00
2023-09-30T09:50:34.822Z,7.00
2023-09-30T09:53:04.054Z,9.00
2023-09-30T09:55:33.692Z,8.00
2023-09-30T09:58:04.427Z,7.00
2023-09-30T10:00:33.185Z,3.50
2023-09-30T10:03:01.169Z,5.00
2023-09-30T10:05:29.709Z,5.60
2023-09-30T10:08:07.079Z,4.60
2023-09-30T10:10:41.646Z,5.00
2023-09-30T10:13:09.144Z,3.00
2023-09-30T10:15:38.908Z,5.00
2023-09-30T10:18:13.890Z,3.40
2023-09-30T10:20:50.605Z,4.60
2023-09-30T10:23:36.322Z,1.80
2023-09-30T10:26:19.644Z,3.20
2023-09-30T10:28:48.681Z,4.00
2023-09-30T10:31:26.430Z,3.00
2023-09-30T10:34:03.430Z,4.00
2023-09-30T10:36:37.419Z,3.60
2023-09-30T10:39:07.897Z,3.20
2023-09-30T10:41:42.472Z,2.80
2023-09-30T10:44:31.428Z,1.00
2023-09-30T10:47:23.207Z,3.00
2023-09-30T10:49:51.645Z,0.40
2023-09-30T10:52:28.244Z,2.00
2023-09-30T10:54:55.923Z,0.80
2023-09-30T10:57:33.310Z,2.00
2023-09-30T11:00:15.844Z,2.00
2023-09-30T11:03:00.631Z,1.00
2023-09-30T11:05:47.655Z,1.60
2023-09-30T11:08:18.999Z,1.00
2023-09-30T11:10:54.213Z,1.00
2023-09-30T11:13:22.725Z,1.00
2023-09-30T11:16:06.294Z,1.00
2023-09-30T11:18:34.369Z,1.00
2023-09-30T11:21:14.608Z,0.60
2023-09-30T11:23:43.097Z,0.40
2023-09-30T11:26:11.441Z,1.00
2023-09-30T11:28:41.139Z,1.00
2023-09-30T11:31:17.312Z,0.20
2023-09-30T11:33:59.413Z,1.00
2023-09-30T11:36:27.571Z,1.80
2023-09-30T11:38:55.570Z,0.00
2023-09-30T11:41:24.067Z,0.20
2023-09-30T11:44:14.654Z,0.00
2023-09-30T11:47:06.258Z,0.00
2023-09-30T11:49:37.561Z,0.80
2023-09-30T11:52:09.606Z,0.00
2023-09-30T11:54:45.545Z,0.60
2023-09-30T11:57:19.776Z,1.00
2023-09-30T11:59:49.007Z,0.00
2023-09-30T12:02:21.420Z,0.00
2023-09-30T12:04:49.729Z,0.80
2023-09-30T12:07:17.658Z,0.00
2023-09-30T12:09:45.773Z,0.00
2023-09-30T12:12:17.410Z,0.00
2023-09-30T12:14:45.206Z,1.00
2023-09-30T12:17:14.146Z,0.20
2023-09-30T12:19:43.370Z,0.00
2023-09-30T12:22:12.241Z,0.00
2023-09-30T12:24:44.243Z,0.40
2023-09-30T12:27:12.063Z,0.00
2023-09-30T12:29:40.435Z,0.00
2023-09-30T12:32:08.295Z,0.00
2023-09-30T12:34:37.568Z,0.00
2023-09-30T12:37:05.614Z,0.00
2023-09-30T12:39:36.401Z,0.00
2023-09-30T12:42:10.464Z,0.00
2023-09-30T12:44:39.400Z,0.00
2023-09-30T12:47:08.136Z,0.00
2023-09-30T12:49:36.052Z,1.00
2023-09-30T12:52:04.293Z,0.00
2023-09-30T12:54:33.975Z,0.00
2023-09-30T12:57:02.652Z,0.00
2023-09-30T12:59:31.358Z,0.00
2023-09-30T13:01:59.380Z,0.00
2023-09-30T13:04:28.759Z,0.00
2023-09-30T13:06:56.941Z,0.00
2023-09-30T13:09:24.744Z,0.00
2023-09-30T13:11:54.097Z,0.00
2023-09-30T13:14:21.704Z,0.00
2023-09-30T13:16:49.693Z,0.00
2023-09-30T13:19:22.724Z,0.00
2023-09-30T13:21:54.353Z,0.80
2023-09-30T13:24:21.815Z,0.20
2023-09-30T13:26:50.083Z,0.00
2023-09-30T13:29:20.310Z,0.00
2023-09-30T13:31:47.657Z,1.00
2023-09-30T13:34:15.684Z,0.00
2023-09-30T13:36:43.087Z,1.00
2023-09-30T13:39:14.361Z,0.20
2023-09-30T13:41:42.046Z,0.00
2023-09-30T13:44:09.659Z,0.00
2023-09-30T13:46:37.208Z,0.00
2023-09-30T13:49:05.352Z,0.00
2023-09-30T13:51:33.029Z,0.00
2023-09-30T13:54:00.766Z,0.00
2023-09-30T13:56:29.172Z,0.40
2023-09-30T13:58:59.887Z,0.00
2023-09-30T14:01:28.560Z,0.00
2023-09-30T14:03:58.614Z,0.00
2023-09-30T14:06:26.886Z,0.00
2023-09-30T14:08:55.027Z,0.00
2023-09-30T14:11:23.679Z,0.00
2023-09-30T14:13:51.380Z,0.00
2023-09-30T14:16:19.123Z,0.00
2023-09-30T14:18:47.005Z,0.00
2023-09-30T14:21:15.489Z,0.00
2023-09-30T14:23:43.091Z,0.00
2023-09-30T14:26:12.553Z,0.00
2023-09-30T14:28:40.240Z,0.00
2023-09-30T14:31:09.068Z,0.00
2023-09-30T14:33:36.755Z,0.00
2023-09-30T14:36:07.149Z,0.00
2023-09-30T14:38:35.790Z,0.00
2023-09-30T14:41:07.370Z,0.00
2023-09-30T14:43:35.147Z,0.00
2023-09-30T14:46:06.068Z,0.00
2023-09-30T14:48:33.797Z,0.00
2023-09-30T14:51:01.289Z,0.25
2023-09-30T14:53:28.621Z,0.00
2023-09-30T14:55:57.024Z,0.00
2023-09-30T14:58:24.417Z,0.25
2023-09-30T15:00:52.064Z,0.00
2023-09-30T15:03:19.496Z,0.00
2023-09-30T15:05:47.086Z,0.00
2023-09-30T15:08:14.456Z,0.00
2023-09-30T15:10:42.067Z,0.00
2023-09-30T15:13:10.363Z,0.00
2023-09-30T15:15:38.748Z,0.00
2023-09-30T15:18:06.514Z,0.00
2023-09-30T15:20:41.572Z,0.00
2023-09-30T15:23:08.993Z,0.00
2023-09-30T15:25:42.932Z,0.00
2023-09-30T15:28:11.299Z,0.00
2023-09-30T15:30:38.713Z,0.00
2023-09-30T15:33:06.522Z,0.00
2023-09-30T15:35:33.968Z,0.00
2023-09-30T15:38:01.309Z,0.00
2023-09-30T15:40:28.988Z,0.00
2023-09-30T15:42:56.369Z,0.00
2023-09-30T15:45:24.752Z,0.00
2023-09-30T15:47:54.059Z,0.50
2023-09-30T15:50:21.621Z,0.00
2023-09-30T15:52:49.046Z,0.00
2023-09-30T15:55:19.330Z,0.00
2023-09-30T15:57:46.683Z,0.00
2023-09-30T16:00:14.521Z,0.00
2023-09-30T16:02:42.098Z,0.00
2023-09-30T16:05:09.685Z,0.00
2023-09-30T16:07:37.451Z,0.00
2023-09-30T16:10:05.156Z,0.00
2023-09-30T16:12:32.661Z,0.00
2023-09-30T16:15:00.260Z,0.25
2023-09-30T16:17:28.514Z,0.00
2023-09-30T16:19:55.756Z,0.00
2023-09-30T16:22:23.084Z,0.00
2023-09-30T16:24:50.423Z,0.00
2023-09-30T16:27:18.563Z,0.00
2023-09-30T16:29:45.997Z,0.00
2023-09-30T16:32:13.646Z,0.00
2023-09-30T16:34:40.949Z,0.00
2023-09-30T16:37:08.417Z,0.50
2023-09-30T16:39:36.239Z,0.00
2023-09-30T16:42:04.956Z,0.00
2023-09-30T16:44:32.313Z,0.00
2023-09-30T16:47:00.609Z,0.00
2023-09-30T16:49:27.940Z,0.00
2023-09-30T16:51:56.143Z,0.25
2023-09-30T16:54:23.543Z,0.75
2023-09-30T16:56:52.364Z,0.00
2023-09-30T16:59:19.619Z,0.00
2023-09-30T17:01:47.952Z,0.00
2023-09-30T17:04:15.508Z,0.50
2023-09-30T17:06:43.976Z,0.00
2023-09-30T17:09:12.597Z,0.00
2023-09-30T17:11:40.126Z,0.00
2023-09-30T17:14:07.750Z,0.00
2023-09-30T17:16:35.229Z,0.00
2023-09-30T17:19:02.648Z,0.75
2023-09-30T17:21:30.281Z,0.75
2023-09-30T17:23:57.679Z,0.00
2023-09-30T17:26:25.476Z,0.00
2023-09-30T17:28:52.745Z,0.00
2023-09-30T17:31:20.289Z,0.25
2023-09-30T17:33:47.772Z,1.00
2023-09-30T17:36:15.282Z,0.00
2023-09-30T17:38:42.595Z,0.00
2023-09-30T17:41:10.634Z,1.00
2023-09-30T17:43:41.480Z,1.00
2023-09-30T17:46:10.923Z,0.00
2023-09-30T17:48:39.208Z,1.00
2023-09-30T17:51:08.200Z,0.00
2023-09-30T17:53:35.658Z,0.25
2023-09-30T17:56:02.968Z,0.00
2023-09-30T17:58:30.260Z,1.00
2023-09-30T18:00:57.826Z,0.25
2023-09-30T18:03:25.260Z,1.00
2023-09-30T18:05:53.408Z,0.00
2023-09-30T18:08:21.112Z,0.50
2023-09-30T18:10:50.463Z,1.00
2023-09-30T18:13:17.747Z,1.00
2023-09-30T18:15:45.718Z,1.00
2023-09-30T18:18:14.012Z,0.50
2023-09-30T18:20:41.806Z,0.50
2023-09-30T18:23:09.383Z,0.25
2023-09-30T18:25:37.725Z,0.00
2023-09-30T18:28:05.615Z,0.50
2023-09-30T18:30:33.200Z,0.25
2023-09-30T18:33:00.705Z,0.00
2023-09-30T18:35:28.140Z,0.75
2023-09-30T18:37:55.573Z,0.50
2023-09-30T18:40:25.093Z,0.00
2023-09-30T18:42:52.942Z,0.75
2023-09-30T18:45:20.216Z,0.00
2023-09-30T18:47:47.600Z,0.00
2023-09-30T18:50:15.043Z,0.00
2023-09-30T18:52:42.343Z,0.00
2023-09-30T18:55:10.225Z,0.00
2023-09-30T18:57:38.136Z,0.75
2023-09-30T19:00:07.103Z,0.75
2023-09-30T19:02:34.614Z,1.00
2023-09-30T19:05:02.720Z,1.00
2023-09-30T19:07:30.596Z,1.00
2023-09-30T19:09:58.263Z,0.00
2023-09-30T19:12:25.766Z,1.00
2023-09-30T19:14:54.428Z,0.50
2023-09-30T19:17:22.491Z,0.00
2023-09-30T19:19:50.044Z,1.00
2023-09-30T19:22:17.643Z,0.75
2023-09-30T19:24:46.615Z,0.00
2023-09-30T19:27:14.209Z,0.00
2023-09-30T19:29:41.807Z,0.00
2023-09-30T19:32:10.683Z,0.00
2023-09-30T19:34:38.301Z,0.00
2023-09-30T19:37:05.900Z,0.25
2023-09-30T19:39:33.815Z,0.00
2023-09-30T19:42:01.265Z,0.00
2023-09-30T19:44:29.110Z,0.75
2023-09-30T19:46:57.208Z,0.00
2023-09-30T19:49:24.856Z,1.00
2023-09-30T19:51:52.689Z,0.50
2023-09-30T19:54:21.257Z,0.00
2023-09-30T19:56:48.694Z,0.00
2023-09-30T19:59:17.565Z,1.00
2023-09-30T20:01:45.605Z,0.00
2023-09-30T20:04:13.555Z,0.00
2023-09-30T20:06:41.266Z,0.00
2023-09-30T20:09:10.417Z,0.00
2023-09-30T20:11:38.004Z,0.00
2023-09-30T20:14:05.770Z,0.25
2023-09-30T20:16:33.562Z,0.00
2023-09-30T20:19:01.528Z,0.00
2023-09-30T20:21:29.576Z,0.00
2023-09-30T20:23:57.396Z,0.50
2023-09-30T20:26:27.212Z,0.00
2023-09-30T20:28:55.768Z,0.00
2023-09-30T20:31:23.874Z,0.00
2023-09-30T20:33:51.810Z,0.00
2023-09-30T20:36:20.328Z,0.00
2023-09-30T20:38:48.140Z,0.00
2023-09-30T20:41:15.930Z,1.00
2023-09-30T20:43:45.293Z,1.00
2023-09-30T20:46:15.505Z,0.00
2023-09-30T20:48:44.132Z,0.00
2023-09-30T20:51:12.352Z,1.00
2023-09-30T20:53:41.028Z,0.25
2023-09-30T20:56:12.886Z,0.00
2023-09-30T20:58:40.843Z,0.00
2023-09-30T21:01:16.596Z,0.00
2023-09-30T21:03:44.842Z,0.75
2023-09-30T21:06:12.736Z,0.00
2023-09-30T21:08:41.163Z,0.50
2023-09-30T21:11:09.595Z,0.75
2023-09-30T21:13:37.426Z,0.00
2023-09-30T21:16:05.586Z,0.00
2023-09-30T21:18:36.581Z,0.00
2023-09-30T21:21:04.379Z,0.00
2023-09-30T21:23:32.407Z,0.75
2023-09-30T21:26:00.224Z,1.75
2023-09-30T21:28:28.150Z,0.00
2023-09-30T21:30:55.933Z,0.00
2023-09-30T21:33:23.858Z,0.50
2023-09-30T21:35:57.378Z,0.00
2023-09-30T21:38:25.789Z,0.75
2023-09-30T21:40:53.270Z,0.50
2023-09-30T21:43:21.175Z,0.00
2023-09-30T21:45:48.938Z,0.50
2023-09-30T21:48:16.845Z,0.75
2023-09-30T21:50:44.536Z,0.00
2023-09-30T21:53:14.063Z,0.00
2023-09-30T21:55:42.737Z,1.00
2023-09-30T21:58:11.265Z,0.00
2023-09-30T22:00:40.444Z,0.00
2023-09-30T22:03:12.474Z,0.00
2023-09-30T22:05:44.393Z,0.50
2023-09-30T22:08:12.201Z,0.00
2023-09-30T22:10:41.401Z,0.50
2023-09-30T22:13:11.217Z,0.00
2023-09-30T22:15:39.353Z,0.00
2023-09-30T22:18:08.404Z,0.25
2023-09-30T22:20:37.005Z,0.00
2023-09-30T22:23:04.930Z,0.00
2023-09-30T22:25:32.809Z,0.00
2023-09-30T22:28:00.995Z,0.25
2023-09-30T22:30:29.559Z,0.00
2023-09-30T22:32:57.221Z,0.00
2023-09-30T22:35:33.989Z,0.00
2023-09-30T22:38:02.149Z,0.75
2023-09-30T22:40:29.916Z,0.25
2023-09-30T22:42:58.137Z,0.00
2023-09-30T22:45:25.904Z,0.00
2023-09-30T22:47:54.496Z,0.00
2023-09-30T22:50:23.943Z,0.50
2023-09-30T22:52:51.979Z,0.50
2023-09-30T22:55:21.370Z,0.00
2023-09-30T22:57:51.622Z,0.00
2023-09-30T23:00:21.214Z,0.00
2023-09-30T23:02:51.719Z,0.00
2023-09-30T23:05:19.498Z,0.00
2023-09-30T23:07:47.697Z,0.00
2023-09-30T23:10:17.877Z,0.00
2023-09-30T23:12:46.053Z,0.00
2023-09-30T23:15:17.857Z,0.25
2023-09-30T23:17:47.630Z,0.00
2023-09-30T23:20:21.918Z,0.00
2023-09-30T23:22:55.974Z,0.00
2023-09-30T23:25:28.495Z,0.25
2023-09-30T23:27:58.564Z,0.00
2023-09-30T23:30:27.603Z,0.50
2023-09-30T23:32:58.794Z,0.00
2023-09-30T23:35:28.209Z,0.00
2023-09-30T23:38:03.517Z,0.00
2023-09-30T23:40:35.148Z,0.00
2023-09-30T23:43:03.667Z,0.00
2023-09-30T23:45:36.068Z,0.00
2023-09-30T23:48:07.273Z,0.00
2023-09-30T23:50:36.535Z,0.00
2023-09-30T23:53:06.608Z,0.00
2023-09-30T23:55:37.828Z,0.00
2023-09-30T23:58:08.344Z,0.00
